»·PEaware :: N805RJ L65-KTNP

N805RJ :: L65-KTNP

FLIGHT INFORMATION

Flight Status: Arrived
Operator: Privately registered:
United States
More flights under this callsign
Pilot: Rickie J. (22768)
Aircraft: CESSNA 172 SKYHAWK
(C172)
More flights by this aircraft type
Origin: L65 Perris Valley
United States
Destination: KTNP Twentynine Palms
United States
More flights between these airports :: More routes between these airports
Route: PERIS WESIN V186 V388 V370 TNP
File this flight plan on PilotEdge
Remarks:
Altitude:
(Current/Filed)
9,500ft
Speed:
(Current/Filed)
120kts
Departed: 07-Aug-20 01:56 PM
Arrived: 07-Aug-20 03:04 PM
Distance/Time
Traveled:
67nm/1:08
Distance/Time
To Go:
Arrived

Flight Plot

Page will automatically refresh every two minutes.

Flight plan parsing failed; only flown route is shown


Map Options




Map Legend


Flown Route
Filed Route
Departure Airport
Arrival Airport
Navaid (VOR, NDB)
Fix

Horizontal Profiles

Position Reports

Time Latitude Longitude Heading Altitude Ground
Speed
07-Aug-20 13:25 33.761461 -117.218579 52 1417ft 0kts
07-Aug-20 13:26 33.761461 -117.218579 52 1417ft 0kts
07-Aug-20 13:27 33.761461 -117.218579 52 1417ft 0kts
07-Aug-20 13:28 33.761461 -117.218579 52 1417ft 0kts
07-Aug-20 13:29 33.761461 -117.218579 52 1417ft 0kts
07-Aug-20 13:30 33.761461 -117.218579 52 1417ft 0kts
07-Aug-20 13:32 33.761461 -117.218579 52 1417ft 0kts
07-Aug-20 13:33 33.761461 -117.218579 52 1417ft 0kts
07-Aug-20 13:34 33.761461 -117.218579 52 1417ft 0kts
07-Aug-20 13:35 33.761461 -117.218579 52 1417ft 0kts
07-Aug-20 13:36 33.761461 -117.218579 52 1417ft 0kts
07-Aug-20 13:37 33.761461 -117.218579 52 1417ft 0kts
07-Aug-20 13:38 33.761461 -117.218579 52 1417ft 0kts
07-Aug-20 13:39 33.761461 -117.218579 52 1417ft 0kts
07-Aug-20 13:40 33.761461 -117.218579 52 1417ft 0kts
07-Aug-20 13:41 33.761461 -117.218579 52 1417ft 0kts
07-Aug-20 13:42 33.761461 -117.218579 52 1417ft 0kts
07-Aug-20 13:43 33.761461 -117.218579 52 1417ft 0kts
07-Aug-20 13:44 33.761461 -117.218579 52 1417ft 0kts
07-Aug-20 13:45 33.761461 -117.218579 52 1417ft 0kts
07-Aug-20 13:46 33.761461 -117.218579 52 1417ft 0kts
07-Aug-20 13:47 33.761461 -117.218579 52 1417ft 0kts
07-Aug-20 13:48 33.761461 -117.218579 52 1417ft 0kts
07-Aug-20 13:48 33.761461 -117.218579 52 1417ft 0kts
07-Aug-20 13:50 33.761218 -117.218347 176 1417ft 4kts
07-Aug-20 13:51 33.759612 -117.218058 169 1417ft 7kts
07-Aug-20 13:51 33.758398 -117.217739 163 1417ft 0kts
07-Aug-20 13:52 33.758399 -117.217739 163 1417ft 0kts
07-Aug-20 13:54 33.758399 -117.217739 163 1417ft 0kts
07-Aug-20 13:54 33.758340 -117.217720 164 1417ft 1kts
07-Aug-20 13:55 33.760403 -117.217734 347 1417ft 58kts
07-Aug-20 13:56 33.775248 -117.233561 247 1966ft 95kts
07-Aug-20 13:57 33.750813 -117.233761 161 2767ft 96kts
07-Aug-20 13:58 33.731154 -117.213109 131 3511ft 97kts
07-Aug-20 13:59 33.707660 -117.203027 190 4199ft 94kts
07-Aug-20 14:00 33.682094 -117.209262 195 4849ft 98kts
07-Aug-20 14:01 33.654620 -117.217304 196 5454ft 103kts
07-Aug-20 14:02 33.627088 -117.225477 196 6053ft 100kts
07-Aug-20 14:03 33.600547 -117.233369 196 6645ft 97kts
07-Aug-20 14:04 33.579297 -117.247121 265 7214ft 95kts
07-Aug-20 14:05 33.596005 -117.270480 320 7754ft 100kts
07-Aug-20 14:06 33.619005 -117.288647 322 8246ft 101kts
07-Aug-20 14:07 33.642305 -117.306272 323 8706ft 101kts
07-Aug-20 14:08 33.666496 -117.324512 323 9104ft 105kts
07-Aug-20 14:09 33.691373 -117.343270 323 9501ft 106kts
07-Aug-20 14:10 33.716448 -117.362195 323 9899ft 106kts
07-Aug-20 14:11 33.740738 -117.381368 320 10292ft 105kts
07-Aug-20 14:12 33.765113 -117.401756 320 10507ft 118kts
07-Aug-20 14:13 33.791825 -117.424062 321 10503ft 127kts
07-Aug-20 14:14 33.817925 -117.445901 321 10477ft 129kts
07-Aug-20 14:15 33.843707 -117.467497 321 10476ft 129kts
07-Aug-20 14:16 33.868314 -117.488125 321 10503ft 128kts
07-Aug-20 14:17 33.886702 -117.503560 321 10502ft 129kts
07-Aug-20 14:18 33.916701 -117.520257 18 10381ft 143kts
07-Aug-20 14:19 33.921544 -117.465906 93 9876ft 147kts
07-Aug-20 14:20 33.923365 -117.405712 95 9502ft 141kts
07-Aug-20 14:21 33.917720 -117.357474 102 9506ft 134kts
07-Aug-20 14:22 33.912233 -117.316263 102 9507ft 133kts
07-Aug-20 14:23 33.909064 -117.291532 94 9536ft 132kts
07-Aug-20 14:24 33.906929 -117.246958 92 9509ft 135kts
07-Aug-20 14:25 33.905044 -117.202109 92 9510ft 134kts
07-Aug-20 14:26 33.903143 -117.157219 92 9514ft 133kts
07-Aug-20 14:27 33.901229 -117.112402 93 9518ft 134kts
07-Aug-20 14:28 33.899299 -117.067469 93 9517ft 134kts
07-Aug-20 14:29 33.897343 -117.022371 94 9516ft 134kts
07-Aug-20 14:30 33.895375 -116.977370 94 9514ft 134kts
07-Aug-20 14:31 33.893393 -116.932419 95 9513ft 134kts
07-Aug-20 14:32 33.891408 -116.887778 96 9512ft 133kts
07-Aug-20 14:33 33.889404 -116.843270 95 9499ft 133kts
07-Aug-20 14:34 33.887378 -116.798435 95 9480ft 134kts
07-Aug-20 14:35 33.885322 -116.753960 93 9505ft 129kts
07-Aug-20 14:36 33.883401 -116.710702 95 9446ft 130kts
07-Aug-20 14:37 33.881390 -116.667586 96 9506ft 131kts
07-Aug-20 14:38 33.879353 -116.623328 96 9503ft 133kts
07-Aug-20 14:39 33.877281 -116.578604 96 9504ft 135kts
07-Aug-20 14:40 33.875144 -116.533411 96 9504ft 135kts
07-Aug-20 14:41 33.872986 -116.488230 96 9504ft 135kts
07-Aug-20 14:42 33.870808 -116.442964 96 9502ft 136kts
07-Aug-20 14:43 33.881465 -116.399370 68 9504ft 139kts
07-Aug-20 14:44 33.897073 -116.356948 67 9504ft 139kts
07-Aug-20 14:45 33.912681 -116.314743 68 9502ft 139kts
07-Aug-20 14:46 33.928313 -116.272404 68 9503ft 139kts
07-Aug-20 14:47 33.943855 -116.230259 68 9503ft 139kts
07-Aug-20 14:48 33.959280 -116.188374 68 9542ft 136kts
07-Aug-20 14:49 33.974501 -116.146986 68 9610ft 137kts
07-Aug-20 14:50 33.990018 -116.104752 67 9542ft 142kts
07-Aug-20 14:51 34.005810 -116.061719 68 9506ft 140kts
07-Aug-20 14:52 34.021289 -116.019120 68 9217ft 139kts
07-Aug-20 14:53 34.036245 -115.977116 67 8795ft 140kts
07-Aug-20 14:54 34.061330 -115.947841 2 8121ft 146kts
07-Aug-20 14:55 34.095896 -115.927858 24 7337ft 146kts
07-Aug-20 14:56 34.128016 -115.919697 7 6654ft 119kts
07-Aug-20 14:57 34.146684 -115.940017 273 5833ft 110kts
07-Aug-20 14:58 34.126984 -115.954890 139 5013ft 119kts
07-Aug-20 14:59 34.133130 -115.923828 8 4196ft 115kts
07-Aug-20 15:00 34.149119 -115.947487 272 3396ft 112kts
07-Aug-20 15:01 34.144185 -115.979092 197 2860ft 97kts
07-Aug-20 15:02 34.134342 -115.956908 88 2204ft 97kts
07-Aug-20 15:03 34.134438 -115.936577 89 1891ft 23kts
07-Aug-20 15:04 34.135239 -115.936429 267 1891ft 9kts
07-Aug-20 15:05 34.135233 -115.939462 269 1891ft 9kts
07-Aug-20 15:06 34.135226 -115.942342 270 1891ft 8kts
07-Aug-20 15:07 34.135748 -115.944374 280 1891ft 4kts
07-Aug-20 15:08 34.135496 -115.944774 182 1891ft 0kts
07-Aug-20 15:09 34.135496 -115.944774 182 1891ft 0kts
07-Aug-20 15:10 34.135496 -115.944774 182 1891ft 0kts
07-Aug-20 15:11 34.135496 -115.944774 182 1891ft 0kts
07-Aug-20 15:12 34.135496 -115.944774 182 1891ft 0kts
07-Aug-20 15:13 34.135496 -115.944774 182 1891ft 0kts

Navigation Log

Ident Type
Flight plan parsing failed, navigation log unavailable